Terminal Aerodrome Forecast
Issued by NWS

Home | Current Version | Previous Version | Text Only | Print | Product List | Glossary On
Versions: 1 2 3 4 5 6 7 8 9 10 11 12 13 14 15 16 17 18
734
FTUS43 KEAX 300458 AAD
TAFSTJ
TAF AMD
KSTJ 300458Z 3005/3024 08014KT P6SM BKN008 OVC080
     FM300800 05010KT 2SM -SHRA BR OVC007
     FM301500 02011KT 2SM BR OVC008
     FM302000 36012KT P6SM OVC010=

USA.gov is the U.S. government's official web portal to all federal, state and local government web resources and services.